Time;durP1;ratioP1;P1;durP2;ratioP2;P2;SDS_P1;SDS_P2;PMS_P1;PMS_P2;Temp;Humidity;BMP_temperature;BMP_pressure;BME280_temperature;BME280_humidity;BME280_pressure;Samples;Min_cycle;Max_cycle;Signal;HPM_P1;HPM_P2
2022/09/22 00:00:58;;;;;;;5.85;3.80;;;;;;;8.57;70.62;101192.41;5113029;28;20393;-63
2022/09/22 00:03:26;;;;;;;4.20;3.22;;;;;;;8.54;70.75;101196.56;5113180;28;20062;-62
2022/09/22 00:06:06;;;;;;;5.25;3.28;;;;;;;8.52;71.23;101192.41;5112323;28;20066;-62
2022/09/22 00:08:36;;;;;;;4.40;2.78;;;;;;;8.46;72.24;101185.19;5112973;28;20051;-62
2022/09/22 00:11:07;;;;;;;4.72;3.25;;;;;;;8.47;70.50;101190.47;5113023;28;20052;-62
2022/09/22 00:13:36;;;;;;;6.13;2.72;;;;;;;8.47;71.14;101182.16;5112755;28;20520;-62
2022/09/22 00:16:08;;;;;;;3.70;2.95;;;;;;;8.46;72.08;101190.75;5112503;28;20530;-62
2022/09/22 00:18:35;;;;;;;4.88;3.13;;;;;;;8.38;72.15;101189.38;5102162;28;20485;-62
2022/09/22 00:21:08;;;;;;;4.75;3.20;;;;;;;8.39;71.18;101184.66;5093094;28;20060;-62
2022/09/22 00:23:37;;;;;;;4.60;3.35;;;;;;;8.38;72.42;101183.81;5091809;28;20055;-62
2022/09/22 00:26:06;;;;;;;7.07;3.03;;;;;;;8.37;71.38;101182.16;5105102;28;20055;-62
2022/09/22 00:28:34;;;;;;;4.35;3.10;;;;;;;8.36;72.04;101186.06;5111494;28;20059;-62
2022/09/22 00:31:05;;;;;;;4.43;3.35;;;;;;;8.33;70.72;101184.66;5134866;27;20055;-63
2022/09/22 00:33:32;;;;;;;6.80;3.40;;;;;;;8.35;71.28;101184.38;5141643;27;20057;-62
2022/09/22 00:36:01;;;;;;;7.68;3.63;;;;;;;8.30;71.88;101189.94;5153648;27;20062;-62
2022/09/22 00:38:30;;;;;;;4.72;3.78;;;;;;;8.29;71.70;101178.03;5140650;27;20047;-63
2022/09/22 00:40:59;;;;;;;5.93;3.92;;;;;;;8.28;71.39;101179.13;5132954;28;20062;-62
2022/09/22 00:43:29;;;;;;;4.47;3.33;;;;;;;8.25;71.53;101182.47;5133293;28;20063;-62
2022/09/22 00:45:59;;;;;;;7.00;4.03;;;;;;;8.24;72.22;101174.44;5133108;28;20051;-62
2022/09/22 00:48:29;;;;;;;7.75;4.15;;;;;;;8.18;71.65;101178.31;5133029;28;20055;-62
2022/09/22 00:50:58;;;;;;;7.10;3.97;;;;;;;8.17;71.74;101182.19;5149848;27;20050;-62
2022/09/22 00:53:27;;;;;;;5.82;3.22;;;;;;;8.18;71.40;101170.00;5152168;27;20050;-62
2022/09/22 00:56:01;;;;;;;5.25;3.13;;;;;;;8.17;71.63;101166.41;5157219;27;20054;-62
2022/09/22 00:58:33;;;;;;;4.80;3.20;;;;;;;8.14;72.54;101172.50;5157892;27;20062;-62
2022/09/22 01:01:00;;;;;;;4.07;2.97;;;;;;;8.12;71.95;101161.66;5157996;27;20054;-62
2022/09/22 01:03:29;;;;;;;3.95;2.80;;;;;;;8.13;71.43;101160.56;5157549;27;20059;-62
2022/09/22 01:05:59;;;;;;;5.55;2.85;;;;;;;8.09;71.51;101165.00;5157454;27;20066;-62
2022/09/22 01:08:28;;;;;;;3.83;2.88;;;;;;;8.09;71.07;101165.00;5157846;27;20067;-62
2022/09/22 01:10:58;;;;;;;7.43;2.90;;;;;;;8.10;70.97;101165.84;5157694;27;20054;-62
2022/09/22 01:13:31;;;;;;;6.47;3.20;;;;;;;8.07;71.63;101164.47;5156467;27;20062;-62
2022/09/22 01:16:12;;;;;;;3.50;2.65;;;;;;;8.05;72.19;101158.38;5157510;27;20058;-62
2022/09/22 01:18:52;;;;;;;5.63;2.92;;;;;;;8.07;72.41;101152.53;5155628;27;20058;-62
2022/09/22 01:21:32;;;;;;;6.18;2.78;;;;;;;8.05;72.12;101154.78;5157699;27;20071;-62
2022/09/22 01:24:14;;;;;;;;;;;;;;;7.96;71.24;101154.50;5157769;27;20061;-62
2022/09/22 01:27:05;;;;;;;4.63;3.08;;;;;;;7.96;71.35;101148.09;5143496;27;20315;-62
2022/09/22 01:29:57;;;;;;;5.55;3.70;;;;;;;7.90;70.71;101137.03;5136807;27;20438;-62
2022/09/22 01:32:31;;;;;;;5.90;3.75;;;;;;;7.84;71.13;101148.41;5138250;27;20073;-62
2022/09/22 01:35:06;;;;;;;7.45;3.28;;;;;;;7.87;72.20;101131.22;5153544;27;20054;-62
2022/09/22 01:37:44;;;;;;;6.22;3.70;;;;;;;7.77;72.34;101140.41;5139988;27;20427;-62
2022/09/22 01:40:17;;;;;;;8.48;3.63;;;;;;;7.76;71.06;101138.72;5140081;27;20058;-63
2022/09/22 01:42:50;;;;;;;5.93;3.55;;;;;;;7.75;71.41;101131.53;5140668;27;20058;-62
2022/09/22 01:45:21;;;;;;;5.60;3.38;;;;;;;7.78;72.01;101139.28;5142327;27;20503;-62
2022/09/22 01:47:55;;;;;;;6.80;4.25;;;;;;;7.78;71.41;101130.13;5137098;27;20051;-62
2022/09/22 01:50:25;;;;;;;6.20;3.35;;;;;;;7.72;71.41;101138.44;5148002;27;20499;-62
2022/09/22 01:52:55;;;;;;;5.70;3.75;;;;;;;7.72;71.08;101129.28;5156722;27;20059;-62
2022/09/22 01:55:25;;;;;;;4.93;3.33;;;;;;;7.73;72.09;101126.25;5156857;27;20065;-62
2022/09/22 01:57:58;;;;;;;4.57;3.00;;;;;;;7.72;71.97;101132.88;5157023;27;20058;-63
2022/09/22 02:00:26;;;;;;;4.60;2.90;;;;;;;7.71;71.06;101122.09;5156573;27;20058;-62
2022/09/22 02:03:00;;;;;;;5.90;2.97;;;;;;;7.67;72.41;101123.75;5142392;27;20498;-62
2022/09/22 02:05:32;;;;;;;5.57;2.58;;;;;;;7.69;71.53;101124.31;5135320;27;20488;-62
2022/09/22 02:08:04;;;;;;;3.60;2.38;;;;;;;7.67;71.21;101112.69;5136260;27;20058;-62
2022/09/22 02:10:36;;;;;;;4.18;2.75;;;;;;;7.66;71.16;101122.91;5135479;27;20411;-62
2022/09/22 02:13:04;;;;;;;5.68;2.88;;;;;;;7.64;72.52;101116.00;5147822;27;20059;-57
2022/09/22 02:18:22;;;;;;;4.18;2.92;;;;;;;7.61;72.24;101106.28;5158801;27;20069;-57
2022/09/22 02:20:51;;;;;;;5.70;3.28;;;;;;;7.56;71.67;101111.84;5145051;27;20054;-57
2022/09/22 02:23:19;;;;;;;4.60;2.97;;;;;;;7.52;71.71;101107.97;5135636;27;20069;-57
2022/09/22 02:25:47;;;;;;;5.10;3.22;;;;;;;7.49;72.42;101109.34;5135565;27;20059;-57
2022/09/22 02:28:18;;;;;;;6.88;3.30;;;;;;;7.51;72.06;101114.63;5135692;27;20407;-57
2022/09/22 02:30:49;;;;;;;6.68;3.15;;;;;;;7.47;72.92;101113.50;5135238;27;20080;-57
2022/09/22 02:33:19;;;;;;;6.32;3.63;;;;;;;7.50;72.33;101113.78;5135708;27;20077;-58
2022/09/22 02:35:52;;;;;;;4.57;3.05;;;;;;;7.51;71.88;101115.44;5135077;27;20055;-57
2022/09/22 02:38:25;;;;;;;4.47;3.03;;;;;;;7.50;71.69;101107.44;5135749;27;20414;-58
2022/09/22 02:41:01;;;;;;;5.72;3.20;;;;;;;7.49;72.28;101114.06;5135507;27;20058;-57
2022/09/22 02:43:33;;;;;;;4.63;2.60;;;;;;;7.46;71.82;101100.78;5139864;27;20058;-57
2022/09/22 02:46:07;;;;;;;4.50;2.50;;;;;;;7.45;72.33;101104.63;5150063;27;20058;-58
2022/09/22 02:48:41;;;;;;;3.38;2.42;;;;;;;7.45;72.05;101110.19;5135869;27;20047;-57
2022/09/22 02:51:09;;;;;;;5.82;2.67;;;;;;;7.44;71.65;101112.13;5145030;27;20062;-57
2022/09/22 02:53:36;;;;;;;4.93;3.05;;;;;;;7.43;72.24;101104.09;5152680;27;20059;-58
2022/09/22 02:56:05;;;;;;;5.85;2.97;;;;;;;7.39;72.37;101100.22;5138332;27;20051;-57
2022/09/22 02:58:32;;;;;;;6.10;3.30;;;;;;;7.36;71.56;101096.06;5136618;27;20046;-58
2022/09/22 03:00:59;;;;;;;7.80;3.78;;;;;;;7.38;72.20;101099.38;5151817;27;20055;-62
2022/09/22 03:03:26;;;;;;;5.35;3.33;;;;;;;7.37;71.38;101097.72;5134836;27;20070;-62
2022/09/22 03:05:55;;;;;;;5.40;3.45;;;;;;;7.38;72.07;101098.56;5133817;27;20055;-62
2022/09/22 03:08:22;;;;;;;5.88;3.92;;;;;;;7.29;71.57;101081.66;5140302;27;20059;-62
2022/09/22 03:10:50;;;;;;;7.22;4.22;;;;;;;7.31;72.33;101083.03;5144566;27;20479;-63
2022/09/22 03:13:17;;;;;;;7.55;3.72;;;;;;;7.27;71.57;101086.66;5152093;27;20399;-62
2022/09/22 03:15:44;;;;;;;7.20;3.28;;;;;;;7.28;71.99;101085.53;5153370;27;20046;-62
2022/09/22 03:18:12;;;;;;;5.28;3.50;;;;;;;7.24;72.01;101088.00;5148649;27;20054;-62
2022/09/22 03:20:39;;;;;;;7.75;3.20;;;;;;;7.28;72.48;101088.28;5141271;27;20051;-62
2022/09/22 03:23:09;;;;;;;6.13;3.08;;;;;;;7.25;72.31;101077.78;5134652;27;20414;-62
2022/09/22 03:25:36;;;;;;;4.03;2.80;;;;;;;7.22;72.33;101084.69;5149804;27;20065;-62
2022/09/22 03:28:03;;;;;;;4.05;3.10;;;;;;;7.21;71.90;101082.22;5135968;27;20066;-62
2022/09/22 03:30:31;;;;;;;5.85;3.13;;;;;;;7.20;72.42;101083.31;5133325;27;20054;-62
2022/09/22 03:32:58;;;;;;;5.93;3.45;;;;;;;7.21;71.57;101079.44;5134932;27;20055;-62
2022/09/22 03:35:25;;;;;;;5.75;4.10;;;;;;;7.18;72.10;101078.06;5137378;27;20059;-62
2022/09/22 03:37:52;;;;;;;9.50;3.35;;;;;;;7.17;72.16;101075.56;5137518;27;20055;-62
2022/09/22 03:40:22;;;;;;;2.90;2.42;;;;;;;7.15;71.47;101073.06;5135006;27;20055;-62
2022/09/22 03:42:49;;;;;;;4.80;2.95;;;;;;;7.15;71.16;101080.53;5134280;27;20066;-62
2022/09/22 03:45:16;;;;;;;3.35;2.40;;;;;;;7.09;72.52;101068.63;5147366;27;20054;-62
2022/09/22 03:47:43;;;;;;;3.25;2.58;;;;;;;7.07;72.57;101068.88;5145552;27;20509;-62
2022/09/22 03:50:11;;;;;;;5.18;2.80;;;;;;;7.10;71.72;101081.38;5133573;27;20051;-61
2022/09/22 03:52:38;;;;;;;5.13;2.70;;;;;;;7.06;71.54;101070.00;5145455;27;20062;-62
2022/09/22 03:55:07;;;;;;;4.28;2.50;;;;;;;7.09;72.28;101068.63;5133617;27;20058;-62
2022/09/22 03:57:36;;;;;;;3.47;2.50;;;;;;;7.08;71.41;101073.34;5133255;27;20483;-63
2022/09/22 04:00:05;;;;;;;5.97;2.95;;;;;;;7.07;71.96;101068.06;5139951;27;20058;-62
2022/09/22 04:02:32;;;;;;;3.63;2.60;;;;;;;7.06;71.17;101070.00;5146154;27;20054;-62
2022/09/22 04:05:00;;;;;;;4.47;3.00;;;;;;;7.00;71.38;101065.56;5142036;27;20069;-62
2022/09/22 04:07:27;;;;;;;3.55;2.45;;;;;;;7.00;72.42;101065.56;5148916;27;20064;-62
2022/09/22 04:09:54;;;;;;;3.78;2.20;;;;;;;7.00;72.62;101067.53;5132892;27;20046;-63
2022/09/22 04:12:21;;;;;;;3.83;2.50;;;;;;;7.05;72.15;101060.03;5133218;27;20058;-63
2022/09/22 04:14:50;;;;;;;4.07;2.80;;;;;;;6.99;72.13;101060.31;5152369;27;20046;-63
2022/09/22 04:17:19;;;;;;;5.78;2.70;;;;;;;6.98;71.55;101061.44;5144130;27;20055;-65
2022/09/22 04:19:46;;;;;;;4.45;3.00;;;;;;;6.94;72.39;101057.53;5132753;27;20054;-63
2022/09/22 04:22:14;;;;;;;5.03;2.65;;;;;;;6.91;71.95;101051.44;5134597;27;20501;-63
2022/09/22 04:24:41;;;;;;;5.65;3.10;;;;;;;6.94;72.36;101049.22;5143015;27;20403;-63
2022/09/22 04:27:08;;;;;;;6.00;3.15;;;;;;;6.88;72.35;101051.97;5153926;27;20055;-63
2022/09/22 04:29:35;;;;;;;4.13;2.55;;;;;;;6.87;71.92;101055.03;5151769;27;20421;-63
2022/09/22 04:32:04;;;;;;;4.28;2.75;;;;;;;6.88;72.75;101051.97;5127401;27;20051;-63
2022/09/22 04:34:31;;;;;;;5.72;3.50;;;;;;;6.83;72.44;101048.41;5115831;28;20055;-63
2022/09/22 04:36:59;;;;;;;5.50;3.20;;;;;;;6.84;72.06;101056.41;5131026;27;20058;-63
2022/09/22 04:39:27;;;;;;;7.10;3.67;;;;;;;6.84;72.53;101050.03;5126344;28;20420;-63
2022/09/22 04:41:54;;;;;;;4.72;3.30;;;;;;;6.82;72.18;101052.25;5113726;28;20056;-62
2022/09/22 04:44:22;;;;;;;5.25;2.95;;;;;;;6.83;71.63;101060.28;5117828;28;20078;-63
2022/09/22 04:46:49;;;;;;;5.20;3.15;;;;;;;6.83;71.72;101054.75;5132734;28;20522;-63
2022/09/22 04:49:18;;;;;;;5.47;2.95;;;;;;;6.81;71.57;101059.75;5116299;28;20055;-64
2022/09/22 04:51:46;;;;;;;4.78;2.83;;;;;;;6.78;72.09;101053.91;5121141;27;20096;-63
2022/09/22 04:54:13;;;;;;;6.18;4.07;;;;;;;6.78;72.65;101057.50;5125148;28;20065;-62
2022/09/22 04:56:41;;;;;;;7.07;4.68;;;;;;;6.77;72.04;101055.03;5131412;28;20062;-63
2022/09/22 04:59:09;;;;;;;7.00;4.82;;;;;;;6.77;72.35;101053.09;5111878;28;20048;-65
2022/09/22 05:01:37;;;;;;;5.43;3.75;;;;;;;6.78;72.42;101049.19;5110980;28;20060;-63
2022/09/22 05:04:04;;;;;;;6.07;3.50;;;;;;;6.80;72.07;101058.06;5112575;28;20055;-63
2022/09/22 05:06:33;;;;;;;5.03;3.10;;;;;;;6.82;72.78;101055.84;5123091;28;20054;-63
2022/09/22 05:09:01;;;;;;;6.03;3.50;;;;;;;6.77;72.36;101046.72;5128275;28;20055;-63
2022/09/22 05:11:30;;;;;;;10.43;3.25;;;;;;;6.78;72.03;101059.44;5124923;27;20523;-63
2022/09/22 05:13:57;;;;;;;5.18;3.00;;;;;;;6.76;71.96;101051.44;5111301;28;20056;-63
2022/09/22 05:16:25;;;;;;;8.63;4.32;;;;;;;6.74;71.84;101053.66;5111392;28;20055;-62
2022/09/22 05:18:52;;;;;;;7.72;3.47;;;;;;;6.71;71.47;101051.41;5111947;28;20056;-61
2022/09/22 05:21:20;;;;;;;6.63;3.67;;;;;;;6.71;71.64;101054.19;5132397;28;20047;-64
2022/09/22 05:23:48;;;;;;;7.18;3.10;;;;;;;6.69;71.64;101053.63;5127412;28;20055;-61
2022/09/22 05:26:16;;;;;;;6.97;3.50;;;;;;;6.67;71.83;101055.84;5130994;28;20059;-61
2022/09/22 05:28:43;;;;;;;7.43;3.38;;;;;;;6.65;71.72;101060.81;5117184;28;20055;-63
2022/09/22 05:31:10;;;;;;;6.50;3.28;;;;;;;6.67;72.32;101061.38;5111165;28;20048;-63
2022/09/22 05:33:38;;;;;;;5.55;3.50;;;;;;;6.68;71.63;101057.50;5111627;28;20059;-63
2022/09/22 05:36:05;;;;;;;5.72;3.20;;;;;;;6.68;71.95;101060.28;5123811;28;20063;-63
2022/09/22 05:38:32;;;;;;;4.90;3.20;;;;;;;6.68;72.05;101063.06;5116097;28;20055;-63
2022/09/22 05:41:04;;;;;;;5.47;3.30;;;;;;;6.75;71.60;101063.59;5115518;27;20058;-63
2022/09/22 05:43:32;;;;;;;4.90;2.95;;;;;;;6.81;71.58;101059.75;5111446;27;20051;-65
2022/09/22 05:45:59;;;;;;;5.18;3.10;;;;;;;6.87;72.18;101057.81;5132022;27;20069;-63
2022/09/22 05:48:26;;;;;;;5.07;3.10;;;;;;;6.88;71.75;101071.38;5132383;27;20427;-63
2022/09/22 05:50:53;;;;;;;5.20;3.58;;;;;;;6.86;72.13;101059.72;5124746;27;20055;-63
2022/09/22 05:53:21;;;;;;;5.05;3.63;;;;;;;6.86;71.89;101065.28;5134473;27;20058;-63
2022/09/22 05:55:48;;;;;;;7.03;3.15;;;;;;;6.90;71.57;101069.16;5133814;27;20073;-63
2022/09/22 05:58:16;;;;;;;6.43;3.67;;;;;;;6.92;71.52;101063.34;5123228;27;20066;-63
2022/09/22 06:00:44;;;;;;;6.50;3.05;;;;;;;6.99;72.05;101074.16;5131163;27;20062;-63
2022/09/22 06:03:11;;;;;;;5.55;3.05;;;;;;;7.05;71.65;101070.28;5126833;27;20059;-64
2022/09/22 06:05:38;;;;;;;7.32;3.58;;;;;;;7.09;72.32;101066.69;5121458;27;20055;-63
2022/09/22 06:08:06;;;;;;;5.95;3.70;;;;;;;7.15;71.91;101073.06;5117865;27;20051;-63
2022/09/22 06:10:35;;;;;;;5.60;3.38;;;;;;;7.26;71.87;101074.72;5126735;27;20056;-63
2022/09/22 06:13:04;;;;;;;5.87;3.57;;;;;;;7.30;71.50;101070.28;5122845;27;20062;-63
2022/09/22 06:15:34;;;;;;;4.47;3.27;;;;;;;7.44;71.54;101072.50;5133044;27;20530;-63
2022/09/22 06:18:04;;;;;;;4.45;3.38;;;;;;;7.62;71.30;101068.31;5115761;27;20055;-63
2022/09/22 06:20:31;;;;;;;7.10;3.63;;;;;;;7.86;71.11;101072.13;5113586;27;20052;-63
2022/09/22 06:22:59;;;;;;;4.43;3.13;;;;;;;8.17;70.98;101068.41;5119617;27;20431;-63
2022/09/22 06:25:27;;;;;;;4.50;3.17;;;;;;;8.48;69.98;101064.44;5117996;27;20066;-63
2022/09/22 06:28:01;;;;;;;8.60;5.00;;;;;;;8.79;68.03;101064.25;5126009;27;20051;-63
2022/09/22 06:30:29;;;;;;;8.02;3.90;;;;;;;8.85;69.26;101065.88;5121225;27;20066;-63
2022/09/22 06:32:58;;;;;;;6.45;4.22;;;;;;;8.79;68.47;101061.47;5116651;27;20484;-63
2022/09/22 06:35:31;;;;;;;10.83;5.33;;;;;;;8.82;68.75;101065.59;5116842;27;20630;-63
2022/09/22 06:37:58;;;;;;;9.07;5.80;;;;;;;9.04;68.05;101068.78;5124563;27;20514;-63
2022/09/22 06:40:26;;;;;;;8.95;5.22;;;;;;;9.60;67.31;101066.66;5132374;27;20051;-63
2022/09/22 06:42:57;;;;;;;9.93;5.07;;;;;;;10.39;65.26;101060.75;5122207;27;20054;-63
2022/09/22 06:45:26;;;;;;;13.23;5.80;;;;;;;11.20;62.12;101061.50;5122541;27;20051;-63
2022/09/22 06:47:59;;;;;;;10.40;5.38;;;;;;;11.96;60.13;101062.09;5114651;28;20059;-63
2022/09/22 06:50:29;;;;;;;10.32;5.60;;;;;;;12.85;58.54;101061.88;5115927;27;20101;-63
2022/09/22 06:52:58;;;;;;;14.38;5.80;;;;;;;13.66;56.46;101056.25;5126154;27;20055;-63
2022/09/22 06:55:26;;;;;;;12.95;5.80;;;;;;;14.51;54.63;101056.09;5112323;27;20058;-63
2022/09/22 06:57:53;;;;;;;15.75;7.35;;;;;;;15.43;52.41;101055.97;5118703;27;20060;-63
2022/09/22 07:00:20;;;;;;;17.35;9.07;;;;;;;16.27;49.84;101054.69;5120611;27;20059;-63
2022/09/22 07:02:47;;;;;;;18.55;10.13;;;;;;;17.10;47.75;101047.53;5115111;27;20051;-62
2022/09/22 07:05:18;;;;;;;25.77;12.40;;;;;;;18.05;45.66;101052.13;5112990;27;20389;-62
2022/09/22 07:07:46;;;;;;;16.42;9.70;;;;;;;18.95;43.62;101049.38;5121829;27;20051;-62
2022/09/22 07:10:13;;;;;;;12.88;8.57;;;;;;;19.65;41.57;101050.94;5117174;27;20055;-59
2022/09/22 07:12:40;;;;;;;11.70;7.88;;;;;;;20.45;39.61;101046.97;5116041;27;20044;-62
2022/09/22 07:15:08;;;;;;;9.48;7.15;;;;;;;21.13;38.85;101038.38;5119185;27;20056;-62
2022/09/22 07:17:35;;;;;;;8.65;6.60;;;;;;;21.69;37.27;101032.19;5122409;27;20043;-63
2022/09/22 07:20:04;;;;;;;10.82;6.05;;;;;;;22.28;36.35;101036.50;5130684;27;20050;-62
2022/09/22 07:22:36;;;;;;;7.22;5.75;;;;;;;22.98;34.57;101037.09;5123027;27;20073;-63
2022/09/22 07:25:04;;;;;;;7.53;6.05;;;;;;;23.51;33.26;101039.78;5121582;27;20051;-61
2022/09/22 07:27:31;;;;;;;9.65;6.30;;;;;;;24.14;32.83;101033.50;5115884;27;20063;-63
2022/09/22 07:29:58;;;;;;;7.90;6.00;;;;;;;24.69;31.96;101033.50;5119296;27;20060;-63
2022/09/22 07:32:27;;;;;;;8.05;5.57;;;;;;;25.11;31.77;101030.06;5114772;27;20075;-63
2022/09/22 07:34:56;;;;;;;10.07;5.82;;;;;;;25.61;30.68;101034.31;5117850;27;20044;-63
2022/09/22 07:37:24;;;;;;;8.20;5.38;;;;;;;26.21;29.87;101024.19;5113170;27;20431;-61
2022/09/22 07:39:52;;;;;;;7.78;5.03;;;;;;;26.70;28.62;101031.88;5118255;27;20070;-63
2022/09/22 07:42:19;;;;;;;6.82;5.35;;;;;;;27.13;28.44;101025.19;5125286;27;20056;-63
2022/09/22 07:50:17;;;;;;;8.40;5.30;;;;;;;28.48;26.96;101022.66;5115062;27;20427;-63
2022/09/22 07:52:50;;;;;;;5.90;4.68;;;;;;;28.72;26.15;101025.69;5119485;27;20074;-66
2022/09/22 07:55:21;;;;;;;6.53;4.43;;;;;;;29.03;25.90;101026.56;5110670;28;20415;-67
2022/09/22 07:57:53;;;;;;;6.38;4.10;;;;;;;29.29;25.43;101032.81;5116657;27;20054;-67
2022/09/22 08:00:21;;;;;;;6.38;4.43;;;;;;;29.78;25.28;101018.19;5114568;27;20058;-67
2022/09/22 08:02:54;;;;;;;6.15;4.05;;;;;;;29.92;24.42;101017.97;5123713;27;20054;-66
2022/09/22 08:05:22;;;;;;;8.02;4.25;;;;;;;30.43;24.78;101015.06;5118986;27;20055;-67
2022/09/22 08:07:50;;;;;;;5.32;3.97;;;;;;;30.94;24.10;101010.00;5126933;27;20423;-67
2022/09/22 08:10:19;;;;;;;5.00;4.13;;;;;;;31.46;23.42;101011.38;5114250;27;20059;-67
2022/09/22 08:12:47;;;;;;;4.57;3.67;;;;;;;31.67;23.00;101013.75;5115460;27;20388;-67
2022/09/22 08:15:14;;;;;;;5.40;3.90;;;;;;;32.11;22.56;101013.53;5112462;27;20062;-67
2022/09/22 08:17:42;;;;;;;5.47;3.67;;;;;;;32.42;22.63;101016.00;5120334;27;20058;-66
2022/09/22 08:20:10;;;;;;;7.10;3.50;;;;;;;32.92;21.80;101005.97;5111578;28;20423;-68
2022/09/22 08:22:38;;;;;;;7.13;3.42;;;;;;;33.69;21.26;101003.25;5112221;28;20059;-64
2022/09/22 08:25:06;;;;;;;5.05;2.90;;;;;;;34.10;20.58;101004.34;5111897;28;20078;-68
2022/09/22 08:27:36;;;;;;;4.18;3.05;;;;;;;34.20;20.57;100996.59;5112064;28;20411;-67
2022/09/22 08:30:05;;;;;;;6.25;2.78;;;;;;;34.67;20.73;100999.47;5111433;27;20062;-67
2022/09/22 08:32:34;;;;;;;3.72;2.80;;;;;;;35.06;19.94;101002.97;5113094;28;20513;-67
2022/09/22 08:35:02;;;;;;;3.40;2.38;;;;;;;35.51;19.92;100992.94;5115159;27;20423;-68
2022/09/22 08:37:31;;;;;;;3.60;2.97;;;;;;;35.44;20.06;100998.22;5112812;28;20059;-67
2022/09/22 08:39:58;;;;;;;3.47;2.38;;;;;;;36.19;18.96;100998.03;5111793;28;20047;-67
2022/09/22 08:42:27;;;;;;;5.63;3.00;;;;;;;36.51;18.95;100996.59;5112711;28;20059;-67
2022/09/22 08:45:02;;;;;;;6.00;2.72;;;;;;;36.87;18.42;100994.19;5121393;28;20483;-67
2022/09/22 08:53:18;;;;;;;3.67;2.70;;;;;;;37.83;17.80;100996.69;5121921;28;20054;-67
2022/09/22 08:55:53;;;;;;;4.72;2.92;;;;;;;38.16;17.46;100990.84;5113063;28;20060;-67
2022/09/22 08:58:35;;;;;;;6.03;2.40;;;;;;;38.47;17.25;101002.09;5112532;28;20066;-67
2022/09/22 09:01:17;;;;;;;3.83;2.28;;;;;;;38.38;17.16;101002.16;5111856;28;20420;-65
2022/09/22 09:04:02;;;;;;;6.22;2.63;;;;;;;38.70;16.97;101000.47;5112312;28;20074;-66
2022/09/22 09:06:38;;;;;;;3.60;2.30;;;;;;;39.04;16.52;100991.56;5133166;28;20059;-66
2022/09/22 09:09:27;;;;;;;3.63;2.60;;;;;;;38.57;16.83;100989.06;5132877;28;20059;-66
2022/09/22 09:12:36;;;;;;;3.55;2.33;;;;;;;38.76;16.98;100995.53;5127833;28;20059;-67
2022/09/22 09:15:36;;;;;;;4.32;2.50;;;;;;;39.22;16.85;100991.38;5111645;27;20052;-67
2022/09/22 09:18:15;;;;;;;3.88;2.10;;;;;;;39.46;16.18;100990.47;5135703;27;20078;-66
2022/09/22 09:20:45;;;;;;;2.80;2.00;;;;;;;39.76;15.95;100988.31;5135015;27;20069;-66
2022/09/22 09:23:17;;;;;;;3.70;2.17;;;;;;;39.87;16.32;100990.63;5127291;27;20054;-66
2022/09/22 09:25:49;;;;;;;4.13;2.60;;;;;;;39.90;15.91;100984.56;5127657;27;20051;-66
2022/09/22 09:28:22;;;;;;;3.83;2.05;;;;;;;40.26;15.64;100981.56;5128214;27;20066;-65
2022/09/22 09:30:52;;;;;;;4.70;2.45;;;;;;;40.22;15.46;100978.91;5124730;27;20052;-66
2022/09/22 09:33:28;;;;;;;3.88;2.65;;;;;;;40.53;15.48;100981.16;5131839;27;20503;-66
2022/09/22 09:35:56;;;;;;;2.83;2.00;;;;;;;40.41;15.74;100982.34;5130893;27;20058;-67
2022/09/22 09:38:28;;;;;;;2.55;1.92;;;;;;;40.30;14.83;100979.28;5132332;27;20051;-65
2022/09/22 09:41:08;;;;;;;4.65;2.05;;;;;;;40.64;14.17;100979.69;5124887;27;20062;-66
2022/09/22 09:43:39;;;;;;;2.08;1.77;;;;;;;40.69;13.59;100976.03;5130879;27;20063;-66
2022/09/22 09:46:17;;;;;;;2.10;1.52;;;;;;;40.94;13.44;100981.09;5120388;27;20491;-65
2022/09/22 09:49:04;;;;;;;2.60;1.45;;;;;;;38.66;14.75;100978.66;5120935;27;20128;-66
2022/09/22 09:51:34;;;;;;;2.88;1.60;;;;;;;37.93;16.60;100972.88;5133658;27;20403;-64
2022/09/22 09:54:05;;;;;;;3.03;1.58;;;;;;;38.90;15.92;100972.78;5129823;27;20422;-66
2022/09/22 09:56:35;;;;;;;1.85;1.30;;;;;;;39.81;14.70;100970.06;5126266;27;20059;-64
2022/09/22 10:01:53;;;;;;;3.03;1.10;;;;;;;36.51;16.28;100972.59;5127166;27;20502;-65
2022/09/22 10:04:32;;;;;;;2.05;1.00;;;;;;;34.70;17.66;100963.81;5136137;27;20058;-65
2022/09/22 10:07:13;;;;;;;2.25;1.30;;;;;;;33.70;18.09;100968.09;5122377;27;20060;-65
2022/09/22 10:09:43;;;;;;;2.03;1.10;;;;;;;32.49;19.80;100956.06;5122625;27;20051;-65
2022/09/22 10:12:23;;;;;;;1.60;0.90;;;;;;;31.57;20.84;100965.84;5114042;27;20051;-65
2022/09/22 10:14:52;;;;;;;1.83;1.20;;;;;;;32.33;20.25;100962.66;5123575;27;20411;-65
2022/09/22 10:17:24;;;;;;;2.45;1.00;;;;;;;31.67;19.67;100958.22;5130844;27;20055;-64
2022/09/22 10:19:53;;;;;;;2.15;1.20;;;;;;;33.73;18.57;100946.94;5126468;27;20503;-65
2022/09/22 10:22:26;;;;;;;1.40;0.90;;;;;;;34.55;17.21;100942.44;5123261;27;20051;-65
2022/09/22 10:25:01;;;;;;;1.85;1.40;;;;;;;34.83;17.51;100937.69;5131777;27;20578;-65
2022/09/22 10:27:31;;;;;;;2.25;0.80;;;;;;;34.26;17.77;100943.47;5128532;27;20051;-65
2022/09/22 10:30:22;;;;;;;1.85;1.08;;;;;;;34.63;16.84;100929.31;5128424;27;20051;-64
2022/09/22 10:33:06;;;;;;;2.47;1.00;;;;;;;35.62;15.66;100925.06;5118499;27;20384;-65
2022/09/22 10:35:36;;;;;;;1.45;0.90;;;;;;;36.44;16.56;100920.69;5133223;27;20051;-65
2022/09/22 10:38:13;;;;;;;2.17;1.02;;;;;;;37.08;15.13;100911.84;5132993;27;20054;-65
2022/09/22 10:40:44;;;;;;;2.50;1.20;;;;;;;38.48;13.85;100915.56;5129463;27;20055;-64
2022/09/22 10:43:28;;;;;;;2.97;1.10;;;;;;;39.04;13.51;100910.81;5133293;27;20059;-65
2022/09/22 10:46:09;;;;;;;2.20;0.77;;;;;;;36.65;14.60;100919.72;5135061;27;20059;-65
2022/09/22 10:48:44;;;;;;;1.38;0.80;;;;;;;34.04;16.05;100922.34;5117160;27;20078;-65
2022/09/22 10:51:16;;;;;;;1.85;1.10;;;;;;;33.44;18.19;100918.16;5115142;28;20078;-65
2022/09/22 10:54:04;;;;;;;1.40;0.80;;;;;;;32.12;18.30;100917.94;5114372;27;20055;-65
2022/09/22 10:56:36;;;;;;;1.70;1.20;;;;;;;30.64;18.82;100931.28;5114271;28;20060;-65
2022/09/22 10:59:23;;;;;;;1.17;0.60;;;;;;;29.84;20.31;100934.00;5114435;28;20513;-65
2022/09/22 11:02:11;;;;;;;2.25;0.90;;;;;;;28.88;21.71;100933.34;5113798;28;20051;-65
2022/09/22 11:04:50;;;;;;;2.53;0.77;;;;;;;26.95;23.90;100938.72;5132593;27;20058;-65
2022/09/22 11:13:35;;;;;;;2.60;0.98;;;;;;;26.91;23.94;100924.44;5122662;27;20054;-65
2022/09/22 11:16:34;;;;;;;3.65;0.90;;;;;;;26.75;24.69;100924.09;5113858;28;20098;-65
2022/09/22 11:19:25;;;;;;;1.65;0.80;;;;;;;26.21;25.22;100927.13;5113850;28;20070;-65
2022/09/22 11:22:11;;;;;;;2.17;0.90;;;;;;;25.84;25.04;100917.72;5113957;28;20403;-65
2022/09/22 11:24:54;;;;;;;1.80;0.88;;;;;;;25.84;25.23;100916.94;5129890;27;20062;-65
2022/09/22 11:27:36;;;;;;;1.50;0.70;;;;;;;25.98;24.39;100916.94;5134495;27;20055;-65
2022/09/22 11:30:15;;;;;;;2.03;1.17;;;;;;;26.17;25.26;100917.75;5133717;27;20407;-65
2022/09/22 11:33:05;;;;;;;1.08;0.63;;;;;;;26.19;25.42;100918.13;5131093;27;20059;-65
2022/09/22 11:35:45;;;;;;;1.23;0.60;;;;;;;26.10;25.24;100909.97;5133893;27;20055;-65
2022/09/22 11:38:30;;;;;;;1.98;1.20;;;;;;;27.16;24.37;100910.00;5133084;27;20051;-65
2022/09/22 11:41:16;;;;;;;1.95;1.00;;;;;;;28.63;22.92;100905.00;5133772;27;20130;-64
2022/09/22 11:43:58;;;;;;;1.65;1.10;;;;;;;30.15;21.11;100896.50;5119721;27;20055;-64
2022/09/22 11:46:36;;;;;;;1.90;1.20;;;;;;;31.05;20.97;100897.53;5113151;28;20503;-64
2022/09/22 11:49:15;;;;;;;2.47;1.08;;;;;;;32.05;19.32;100888.53;5113026;28;20145;-64
2022/09/22 11:52:02;;;;;;;1.60;1.10;;;;;;;31.84;18.93;100892.75;5112921;28;20055;-64
2022/09/22 11:54:59;;;;;;;1.63;1.10;;;;;;;32.77;18.45;100875.72;5130320;27;20501;-64
2022/09/22 11:57:32;;;;;;;1.65;1.20;;;;;;;34.39;16.91;100879.78;5133529;27;20051;-64
2022/09/22 12:00:09;;;;;;;1.77;1.00;;;;;;;34.66;16.64;100872.63;5133692;27;20051;-64
2022/09/22 12:02:40;;;;;;;1.95;1.10;;;;;;;35.27;16.28;100870.22;5132160;27;20066;-63
2022/09/22 12:05:12;;;;;;;1.75;1.25;;;;;;;35.46;15.67;100868.97;5133555;27;20361;-63
2022/09/22 12:07:45;;;;;;;2.97;1.02;;;;;;;35.20;15.66;100867.63;5133849;27;20050;-63
2022/09/22 12:10:24;;;;;;;2.50;0.95;;;;;;;36.59;15.82;100854.88;5133439;27;20051;-64
2022/09/22 12:12:55;;;;;;;;;;;;;;;36.36;15.70;100862.97;5128083;27;20091;-65